sensor_id;sensor_type;location;lat;lon;timestamp;temperature;humidity
74657;DHT22;63185;45.642;13.764;2023-02-03T00:00:25;8.40;61.40
74657;DHT22;63185;45.642;13.764;2023-02-03T00:02:53;8.40;61.50
74657;DHT22;63185;45.642;13.764;2023-02-03T00:05:19;8.40;61.50
74657;DHT22;63185;45.642;13.764;2023-02-03T00:07:45;8.30;61.10
74657;DHT22;63185;45.642;13.764;2023-02-03T00:10:11;8.30;60.70
74657;DHT22;63185;45.642;13.764;2023-02-03T00:12:37;8.30;60.00
74657;DHT22;63185;45.642;13.764;2023-02-03T00:15:03;8.30;60.00
74657;DHT22;63185;45.642;13.764;2023-02-03T00:17:29;8.30;59.80
74657;DHT22;63185;45.642;13.764;2023-02-03T00:19:55;8.30;59.20
74657;DHT22;63185;45.642;13.764;2023-02-03T00:22:20;8.30;59.40
74657;DHT22;63185;45.642;13.764;2023-02-03T00:24:46;8.20;59.50
74657;DHT22;63185;45.642;13.764;2023-02-03T00:27:12;8.20;59.70
74657;DHT22;63185;45.642;13.764;2023-02-03T00:29:38;8.20;60.00
74657;DHT22;63185;45.642;13.764;2023-02-03T00:32:04;8.20;59.80
74657;DHT22;63185;45.642;13.764;2023-02-03T00:34:30;8.20;59.70
74657;DHT22;63185;45.642;13.764;2023-02-03T00:36:56;8.20;60.00
74657;DHT22;63185;45.642;13.764;2023-02-03T00:39:22;8.10;59.80
74657;DHT22;63185;45.642;13.764;2023-02-03T00:41:48;8.10;59.70
74657;DHT22;63185;45.642;13.764;2023-02-03T00:44:14;8.10;59.50
74657;DHT22;63185;45.642;13.764;2023-02-03T00:46:40;8.10;59.30
74657;DHT22;63185;45.642;13.764;2023-02-03T00:49:06;8.10;59.60
74657;DHT22;63185;45.642;13.764;2023-02-03T00:51:32;8.10;60.00
74657;DHT22;63185;45.642;13.764;2023-02-03T00:53:58;8.10;60.00
74657;DHT22;63185;45.642;13.764;2023-02-03T00:56:24;8.10;59.80
74657;DHT22;63185;45.642;13.764;2023-02-03T00:58:50;8.00;60.30
74657;DHT22;63185;45.642;13.764;2023-02-03T01:01:16;8.00;60.40
74657;DHT22;63185;45.642;13.764;2023-02-03T01:03:41;8.00;60.00
74657;DHT22;63185;45.642;13.764;2023-02-03T01:06:13;8.00;60.00
74657;DHT22;63185;45.642;13.764;2023-02-03T01:08:39;8.00;60.20
74657;DHT22;63185;45.642;13.764;2023-02-03T01:11:13;8.00;60.20
74657;DHT22;63185;45.642;13.764;2023-02-03T01:13:39;8.00;60.00
74657;DHT22;63185;45.642;13.764;2023-02-03T01:16:09;8.00;59.80
74657;DHT22;63185;45.642;13.764;2023-02-03T01:18:36;8.00;59.10
74657;DHT22;63185;45.642;13.764;2023-02-03T01:21:11;8.10;59.20
74657;DHT22;63185;45.642;13.764;2023-02-03T01:23:37;8.10;58.90
74657;DHT22;63185;45.642;13.764;2023-02-03T01:26:09;8.10;58.70
74657;DHT22;63185;45.642;13.764;2023-02-03T01:28:35;8.10;58.50
74657;DHT22;63185;45.642;13.764;2023-02-03T01:31:20;8.10;58.30
74657;DHT22;63185;45.642;13.764;2023-02-03T01:33:46;8.10;58.70
74657;DHT22;63185;45.642;13.764;2023-02-03T01:36:14;8.10;58.20
74657;DHT22;63185;45.642;13.764;2023-02-03T01:38:40;8.10;57.90
74657;DHT22;63185;45.642;13.764;2023-02-03T01:41:09;8.10;58.30
74657;DHT22;63185;45.642;13.764;2023-02-03T01:43:37;8.10;58.50
74657;DHT22;63185;45.642;13.764;2023-02-03T01:48:42;8.10;58.00
74657;DHT22;63185;45.642;13.764;2023-02-03T01:51:08;8.20;57.40
74657;DHT22;63185;45.642;13.764;2023-02-03T01:53:34;8.20;57.30
74657;DHT22;63185;45.642;13.764;2023-02-03T01:56:02;8.20;57.20
74657;DHT22;63185;45.642;13.764;2023-02-03T01:58:32;8.30;56.90
74657;DHT22;63185;45.642;13.764;2023-02-03T02:01:00;8.30;56.60
74657;DHT22;63185;45.642;13.764;2023-02-03T02:03:32;8.40;56.60
74657;DHT22;63185;45.642;13.764;2023-02-03T02:06:05;8.40;56.30
74657;DHT22;63185;45.642;13.764;2023-02-03T02:08:31;8.40;56.20
74657;DHT22;63185;45.642;13.764;2023-02-03T02:11:00;8.40;56.40
74657;DHT22;63185;45.642;13.764;2023-02-03T02:13:29;8.40;56.60
74657;DHT22;63185;45.642;13.764;2023-02-03T02:35:41;8.20;56.60
74657;DHT22;63185;45.642;13.764;2023-02-03T02:38:13;8.20;56.90
74657;DHT22;63185;45.642;13.764;2023-02-03T02:40:50;8.20;56.90
74657;DHT22;63185;45.642;13.764;2023-02-03T02:46:52;8.20;57.40
74657;DHT22;63185;45.642;13.764;2023-02-03T02:50:22;8.10;57.60
74657;DHT22;63185;45.642;13.764;2023-02-03T02:52:30;8.10;57.70
74657;DHT22;63185;45.642;13.764;2023-02-03T02:55:04;8.10;57.90
74657;DHT22;63185;45.642;13.764;2023-02-03T02:57:30;8.10;57.80
74657;DHT22;63185;45.642;13.764;2023-02-03T02:59:59;8.10;57.60
74657;DHT22;63185;45.642;13.764;2023-02-03T03:02:34;8.10;57.80
74657;DHT22;63185;45.642;13.764;2023-02-03T03:05:02;8.00;57.90
74657;DHT22;63185;45.642;13.764;2023-02-03T03:07:33;8.00;57.90
74657;DHT22;63185;45.642;13.764;2023-02-03T03:10:03;8.00;58.00
74657;DHT22;63185;45.642;13.764;2023-02-03T03:12:44;8.00;58.40
74657;DHT22;63185;45.642;13.764;2023-02-03T03:15:18;8.00;58.40
74657;DHT22;63185;45.642;13.764;2023-02-03T03:20:32;8.00;58.20
74657;DHT22;63185;45.642;13.764;2023-02-03T03:23:06;8.00;58.50
74657;DHT22;63185;45.642;13.764;2023-02-03T03:25:40;8.00;58.30
74657;DHT22;63185;45.642;13.764;2023-02-03T03:28:12;8.00;58.20
74657;DHT22;63185;45.642;13.764;2023-02-03T03:30:40;8.00;58.10
74657;DHT22;63185;45.642;13.764;2023-02-03T03:33:07;8.00;58.10
74657;DHT22;63185;45.642;13.764;2023-02-03T03:38:20;8.00;58.50
74657;DHT22;63185;45.642;13.764;2023-02-03T03:41:21;8.00;58.50
74657;DHT22;63185;45.642;13.764;2023-02-03T03:43:50;7.90;58.60
74657;DHT22;63185;45.642;13.764;2023-02-03T03:46:24;8.00;58.40
74657;DHT22;63185;45.642;13.764;2023-02-03T03:48:58;8.00;58.20
74657;DHT22;63185;45.642;13.764;2023-02-03T03:51:40;7.90;58.10
74657;DHT22;63185;45.642;13.764;2023-02-03T03:54:11;7.90;58.10
74657;DHT22;63185;45.642;13.764;2023-02-03T03:56:42;8.00;58.00
74657;DHT22;63185;45.642;13.764;2023-02-03T03:59:10;8.00;57.50
74657;DHT22;63185;45.642;13.764;2023-02-03T04:01:38;8.00;57.00
74657;DHT22;63185;45.642;13.764;2023-02-03T04:04:07;8.10;57.00
74657;DHT22;63185;45.642;13.764;2023-02-03T04:06:34;8.10;57.30
74657;DHT22;63185;45.642;13.764;2023-02-03T04:09:00;8.10;57.30
74657;DHT22;63185;45.642;13.764;2023-02-03T04:11:26;8.00;57.30
74657;DHT22;63185;45.642;13.764;2023-02-03T04:14:11;8.00;57.70
74657;DHT22;63185;45.642;13.764;2023-02-03T04:16:36;8.00;58.00
74657;DHT22;63185;45.642;13.764;2023-02-03T04:19:02;8.00;58.30
74657;DHT22;63185;45.642;13.764;2023-02-03T04:21:28;8.00;58.40
74657;DHT22;63185;45.642;13.764;2023-02-03T04:23:53;8.00;58.70
74657;DHT22;63185;45.642;13.764;2023-02-03T04:26:21;8.00;58.40
74657;DHT22;63185;45.642;13.764;2023-02-03T04:28:47;7.90;58.40
74657;DHT22;63185;45.642;13.764;2023-02-03T04:31:12;7.90;58.50
74657;DHT22;63185;45.642;13.764;2023-02-03T04:33:38;7.90;58.50
74657;DHT22;63185;45.642;13.764;2023-02-03T04:36:04;7.90;58.40
74657;DHT22;63185;45.642;13.764;2023-02-03T04:38:29;7.80;58.40
74657;DHT22;63185;45.642;13.764;2023-02-03T04:40:55;7.80;58.30
74657;DHT22;63185;45.642;13.764;2023-02-03T04:43:21;7.80;58.60
74657;DHT22;63185;45.642;13.764;2023-02-03T04:45:46;7.70;58.80
74657;DHT22;63185;45.642;13.764;2023-02-03T04:48:12;7.70;59.00
74657;DHT22;63185;45.642;13.764;2023-02-03T04:50:38;7.70;59.30
74657;DHT22;63185;45.642;13.764;2023-02-03T04:53:03;7.70;59.60
74657;DHT22;63185;45.642;13.764;2023-02-03T04:55:29;7.70;59.70
74657;DHT22;63185;45.642;13.764;2023-02-03T04:57:59;7.60;59.60
74657;DHT22;63185;45.642;13.764;2023-02-03T05:00:26;7.60;60.20
74657;DHT22;63185;45.642;13.764;2023-02-03T05:02:52;7.60;60.30
74657;DHT22;63185;45.642;13.764;2023-02-03T05:05:19;7.60;60.40
74657;DHT22;63185;45.642;13.764;2023-02-03T05:07:45;7.60;60.50
74657;DHT22;63185;45.642;13.764;2023-02-03T05:10:10;7.60;60.40
74657;DHT22;63185;45.642;13.764;2023-02-03T05:12:36;7.60;60.00
74657;DHT22;63185;45.642;13.764;2023-02-03T05:15:02;7.60;59.90
74657;DHT22;63185;45.642;13.764;2023-02-03T05:17:28;7.60;59.60
74657;DHT22;63185;45.642;13.764;2023-02-03T05:19:53;7.70;59.60
74657;DHT22;63185;45.642;13.764;2023-02-03T05:22:19;7.70;59.60
74657;DHT22;63185;45.642;13.764;2023-02-03T05:24:45;7.70;59.50
74657;DHT22;63185;45.642;13.764;2023-02-03T05:27:10;7.70;59.50
74657;DHT22;63185;45.642;13.764;2023-02-03T05:29:36;7.60;59.70
74657;DHT22;63185;45.642;13.764;2023-02-03T05:32:02;7.60;59.90
74657;DHT22;63185;45.642;13.764;2023-02-03T05:34:28;7.60;60.20
74657;DHT22;63185;45.642;13.764;2023-02-03T05:36:53;7.60;60.40
74657;DHT22;63185;45.642;13.764;2023-02-03T05:39:19;7.70;60.60
74657;DHT22;63185;45.642;13.764;2023-02-03T05:41:45;7.80;61.10
74657;DHT22;63185;45.642;13.764;2023-02-03T05:44:20;7.90;61.10
74657;DHT22;63185;45.642;13.764;2023-02-03T05:46:46;7.90;61.70
74657;DHT22;63185;45.642;13.764;2023-02-03T05:49:12;8.10;61.70
74657;DHT22;63185;45.642;13.764;2023-02-03T05:51:38;8.10;61.40
74657;DHT22;63185;45.642;13.764;2023-02-03T05:54:05;8.20;61.00
74657;DHT22;63185;45.642;13.764;2023-02-03T05:56:31;8.20;60.20
74657;DHT22;63185;45.642;13.764;2023-02-03T05:58:56;8.30;59.90
74657;DHT22;63185;45.642;13.764;2023-02-03T06:01:22;8.40;59.80
74657;DHT22;63185;45.642;13.764;2023-02-03T06:03:48;8.30;59.50
74657;DHT22;63185;45.642;13.764;2023-02-03T06:06:14;8.30;59.50
74657;DHT22;63185;45.642;13.764;2023-02-03T06:08:40;8.30;59.80
74657;DHT22;63185;45.642;13.764;2023-02-03T06:11:06;8.20;59.10
74657;DHT22;63185;45.642;13.764;2023-02-03T06:13:31;8.20;59.40
74657;DHT22;63185;45.642;13.764;2023-02-03T06:15:57;8.20;59.40
74657;DHT22;63185;45.642;13.764;2023-02-03T06:18:23;8.20;59.30
74657;DHT22;63185;45.642;13.764;2023-02-03T06:20:49;8.30;59.30
74657;DHT22;63185;45.642;13.764;2023-02-03T06:23:15;8.40;58.90
74657;DHT22;63185;45.642;13.764;2023-02-03T06:25:47;8.60;59.20
74657;DHT22;63185;45.642;13.764;2023-02-03T06:28:13;8.60;59.30
74657;DHT22;63185;45.642;13.764;2023-02-03T06:30:38;8.70;59.40
74657;DHT22;63185;45.642;13.764;2023-02-03T06:33:04;8.80;59.80
74657;DHT22;63185;45.642;13.764;2023-02-03T06:35:30;8.90;60.40
74657;DHT22;63185;45.642;13.764;2023-02-03T06:37:55;9.00;60.60
74657;DHT22;63185;45.642;13.764;2023-02-03T06:40:21;9.10;60.40
74657;DHT22;63185;45.642;13.764;2023-02-03T06:42:47;9.10;59.90
74657;DHT22;63185;45.642;13.764;2023-02-03T06:45:13;9.10;60.30
74657;DHT22;63185;45.642;13.764;2023-02-03T06:47:41;9.10;61.20
74657;DHT22;63185;45.642;13.764;2023-02-03T06:50:08;9.20;62.20
74657;DHT22;63185;45.642;13.764;2023-02-03T06:52:34;9.20;62.20
74657;DHT22;63185;45.642;13.764;2023-02-03T06:54:59;9.10;62.80
74657;DHT22;63185;45.642;13.764;2023-02-03T06:57:25;9.10;63.90
74657;DHT22;63185;45.642;13.764;2023-02-03T06:59:51;9.00;65.00
74657;DHT22;63185;45.642;13.764;2023-02-03T07:02:17;9.10;65.40
74657;DHT22;63185;45.642;13.764;2023-02-03T07:04:42;9.10;67.10
74657;DHT22;63185;45.642;13.764;2023-02-03T07:07:10;9.10;67.50
74657;DHT22;63185;45.642;13.764;2023-02-03T07:09:37;9.10;67.80
74657;DHT22;63185;45.642;13.764;2023-02-03T07:12:03;9.10;68.20
74657;DHT22;63185;45.642;13.764;2023-02-03T07:14:29;9.10;68.20
74657;DHT22;63185;45.642;13.764;2023-02-03T07:17:01;9.20;68.30
74657;DHT22;63185;45.642;13.764;2023-02-03T07:19:27;9.20;68.80
74657;DHT22;63185;45.642;13.764;2023-02-03T07:21:53;9.30;68.40
74657;DHT22;63185;45.642;13.764;2023-02-03T07:24:18;9.20;66.30
74657;DHT22;63185;45.642;13.764;2023-02-03T07:26:44;9.20;65.70
74657;DHT22;63185;45.642;13.764;2023-02-03T07:29:10;9.20;66.00
74657;DHT22;63185;45.642;13.764;2023-02-03T07:31:36;9.20;66.30
74657;DHT22;63185;45.642;13.764;2023-02-03T07:34:03;9.20;67.60
74657;DHT22;63185;45.642;13.764;2023-02-03T07:36:28;9.20;67.70
74657;DHT22;63185;45.642;13.764;2023-02-03T07:38:54;9.30;67.50
74657;DHT22;63185;45.642;13.764;2023-02-03T07:41:20;9.30;67.70
74657;DHT22;63185;45.642;13.764;2023-02-03T07:43:46;9.40;67.80
74657;DHT22;63185;45.642;13.764;2023-02-03T07:46:12;9.40;67.80
74657;DHT22;63185;45.642;13.764;2023-02-03T07:48:38;9.50;67.90
74657;DHT22;63185;45.642;13.764;2023-02-03T07:51:03;9.50;68.00
74657;DHT22;63185;45.642;13.764;2023-02-03T07:53:29;9.60;67.80
74657;DHT22;63185;45.642;13.764;2023-02-03T07:56:00;9.60;67.70
74657;DHT22;63185;45.642;13.764;2023-02-03T07:58:27;9.60;67.50
74657;DHT22;63185;45.642;13.764;2023-02-03T08:00:52;9.60;67.40
74657;DHT22;63185;45.642;13.764;2023-02-03T08:03:18;9.70;67.00
74657;DHT22;63185;45.642;13.764;2023-02-03T08:05:44;9.70;66.70
74657;DHT22;63185;45.642;13.764;2023-02-03T08:08:09;9.80;66.40
74657;DHT22;63185;45.642;13.764;2023-02-03T08:10:35;9.80;65.80
74657;DHT22;63185;45.642;13.764;2023-02-03T08:13:01;9.70;65.30
74657;DHT22;63185;45.642;13.764;2023-02-03T08:15:26;9.70;65.10
74657;DHT22;63185;45.642;13.764;2023-02-03T08:17:52;9.70;64.90
74657;DHT22;63185;45.642;13.764;2023-02-03T08:20:18;9.80;65.10
74657;DHT22;63185;45.642;13.764;2023-02-03T08:22:44;9.80;64.90
74657;DHT22;63185;45.642;13.764;2023-02-03T08:25:10;9.90;65.00
74657;DHT22;63185;45.642;13.764;2023-02-03T08:27:36;9.90;65.00
74657;DHT22;63185;45.642;13.764;2023-02-03T08:30:02;10.00;64.80
74657;DHT22;63185;45.642;13.764;2023-02-03T08:32:28;10.00;64.60
74657;DHT22;63185;45.642;13.764;2023-02-03T08:34:56;10.10;64.50
74657;DHT22;63185;45.642;13.764;2023-02-03T08:37:23;10.10;64.40
74657;DHT22;63185;45.642;13.764;2023-02-03T08:39:52;10.20;64.10
74657;DHT22;63185;45.642;13.764;2023-02-03T08:42:18;10.30;64.10
74657;DHT22;63185;45.642;13.764;2023-02-03T08:44:44;10.40;64.00
74657;DHT22;63185;45.642;13.764;2023-02-03T08:47:10;10.50;63.70
74657;DHT22;63185;45.642;13.764;2023-02-03T08:49:36;10.50;63.60
74657;DHT22;63185;45.642;13.764;2023-02-03T08:52:05;10.60;63.50
74657;DHT22;63185;45.642;13.764;2023-02-03T08:54:31;10.60;63.50
74657;DHT22;63185;45.642;13.764;2023-02-03T08:56:57;10.70;63.20
74657;DHT22;63185;45.642;13.764;2023-02-03T08:59:23;10.80;63.20
74657;DHT22;63185;45.642;13.764;2023-02-03T09:01:50;10.90;63.30
74657;DHT22;63185;45.642;13.764;2023-02-03T09:04:18;10.90;62.60
74657;DHT22;63185;45.642;13.764;2023-02-03T09:06:45;11.00;62.90
74657;DHT22;63185;45.642;13.764;2023-02-03T09:09:13;11.10;62.80
74657;DHT22;63185;45.642;13.764;2023-02-03T09:11:40;11.10;62.40
74657;DHT22;63185;45.642;13.764;2023-02-03T09:14:07;11.20;62.00
74657;DHT22;63185;45.642;13.764;2023-02-03T09:16:33;11.30;61.70
74657;DHT22;63185;45.642;13.764;2023-02-03T09:18:58;11.30;61.50
74657;DHT22;63185;45.642;13.764;2023-02-03T09:21:24;11.30;61.50
74657;DHT22;63185;45.642;13.764;2023-02-03T09:23:50;11.40;61.70
74657;DHT22;63185;45.642;13.764;2023-02-03T09:26:16;11.30;61.80
74657;DHT22;63185;45.642;13.764;2023-02-03T09:28:42;11.30;61.40
74657;DHT22;63185;45.642;13.764;2023-02-03T09:31:11;11.40;61.50
74657;DHT22;63185;45.642;13.764;2023-02-03T09:33:37;11.50;60.90
74657;DHT22;63185;45.642;13.764;2023-02-03T09:36:03;11.70;60.30
74657;DHT22;63185;45.642;13.764;2023-02-03T09:38:31;12.00;59.90
74657;DHT22;63185;45.642;13.764;2023-02-03T09:46:19;12.60;57.20
74657;DHT22;63185;45.642;13.764;2023-02-03T09:48:57;12.70;56.70
74657;DHT22;63185;45.642;13.764;2023-02-03T09:51:31;12.80;56.40
74657;DHT22;63185;45.642;13.764;2023-02-03T09:56:40;12.80;56.20
74657;DHT22;63185;45.642;13.764;2023-02-03T09:59:09;12.70;57.00
74657;DHT22;63185;45.642;13.764;2023-02-03T10:02:12;12.70;57.60
74657;DHT22;63185;45.642;13.764;2023-02-03T10:10:06;12.80;57.30
74657;DHT22;63185;45.642;13.764;2023-02-03T10:12:41;12.70;57.60
74657;DHT22;63185;45.642;13.764;2023-02-03T10:15:32;12.60;57.70
74657;DHT22;63185;45.642;13.764;2023-02-03T10:18:06;12.60;57.70
74657;DHT22;63185;45.642;13.764;2023-02-03T10:20:47;12.50;58.30
74657;DHT22;63185;45.642;13.764;2023-02-03T10:23:17;12.60;57.90
74657;DHT22;63185;45.642;13.764;2023-02-03T10:25:52;12.70;58.30
74657;DHT22;63185;45.642;13.764;2023-02-03T10:28:30;12.60;58.60
74657;DHT22;63185;45.642;13.764;2023-02-03T10:31:02;12.80;58.60
74657;DHT22;63185;45.642;13.764;2023-02-03T10:33:33;13.00;58.30
74657;DHT22;63185;45.642;13.764;2023-02-03T10:36:20;13.00;58.20
74657;DHT22;63185;45.642;13.764;2023-02-03T10:41:34;12.90;58.10
74657;DHT22;63185;45.642;13.764;2023-02-03T10:44:04;13.00;57.70
74657;DHT22;63185;45.642;13.764;2023-02-03T10:46:33;12.80;58.40
74657;DHT22;63185;45.642;13.764;2023-02-03T10:48:59;13.00;58.00
74657;DHT22;63185;45.642;13.764;2023-02-03T10:51:51;13.00;58.20
74657;DHT22;63185;45.642;13.764;2023-02-03T10:54:27;12.90;58.30
74657;DHT22;63185;45.642;13.764;2023-02-03T10:56:54;13.00;58.90
74657;DHT22;63185;45.642;13.764;2023-02-03T10:59:34;12.90;58.40
74657;DHT22;63185;45.642;13.764;2023-02-03T11:02:13;12.80;59.60
74657;DHT22;63185;45.642;13.764;2023-02-03T11:04:45;12.70;59.40
74657;DHT22;63185;45.642;13.764;2023-02-03T11:07:24;12.60;59.60
74657;DHT22;63185;45.642;13.764;2023-02-03T11:09:50;12.60;58.70
74657;DHT22;63185;45.642;13.764;2023-02-03T11:12:18;12.60;59.30
74657;DHT22;63185;45.642;13.764;2023-02-03T11:14:46;12.60;60.30
74657;DHT22;63185;45.642;13.764;2023-02-03T11:19:45;12.80;60.10
74657;DHT22;63185;45.642;13.764;2023-02-03T11:22:13;12.80;59.50
74657;DHT22;63185;45.642;13.764;2023-02-03T11:24:50;12.80;59.50
74657;DHT22;63185;45.642;13.764;2023-02-03T11:27:17;12.70;58.60
74657;DHT22;63185;45.642;13.764;2023-02-03T11:29:46;12.90;61.10
74657;DHT22;63185;45.642;13.764;2023-02-03T11:32:17;12.80;61.30
74657;DHT22;63185;45.642;13.764;2023-02-03T11:37:33;12.90;59.80
74657;DHT22;63185;45.642;13.764;2023-02-03T11:42:34;13.00;60.50
74657;DHT22;63185;45.642;13.764;2023-02-03T11:48:05;13.00;59.20
74657;DHT22;63185;45.642;13.764;2023-02-03T11:53:24;13.30;59.10
74657;DHT22;63185;45.642;13.764;2023-02-03T11:56:03;13.30;57.90
74657;DHT22;63185;45.642;13.764;2023-02-03T12:07:46;13.40;57.80
74657;DHT22;63185;45.642;13.764;2023-02-03T12:13:23;13.50;59.10
74657;DHT22;63185;45.642;13.764;2023-02-03T12:21:40;13.40;61.10
74657;DHT22;63185;45.642;13.764;2023-02-03T12:26:56;13.10;64.50
74657;DHT22;63185;45.642;13.764;2023-02-03T12:29:29;13.00;65.10
74657;DHT22;63185;45.642;13.764;2023-02-03T12:32:13;13.10;65.40
74657;DHT22;63185;45.642;13.764;2023-02-03T12:37:55;13.10;64.50
74657;DHT22;63185;45.642;13.764;2023-02-03T12:40:44;13.10;65.40
74657;DHT22;63185;45.642;13.764;2023-02-03T12:46:21;13.10;64.50
74657;DHT22;63185;45.642;13.764;2023-02-03T12:51:52;13.20;62.30
74657;DHT22;63185;45.642;13.764;2023-02-03T13:08:36;13.30;60.60
74657;DHT22;63185;45.642;13.764;2023-02-03T13:13:49;13.30;60.60
74657;DHT22;63185;45.642;13.764;2023-02-03T13:16:20;13.30;60.90
74657;DHT22;63185;45.642;13.764;2023-02-03T13:18:53;13.50;61.60
74657;DHT22;63185;45.642;13.764;2023-02-03T13:21:20;13.50;62.50
74657;DHT22;63185;45.642;13.764;2023-02-03T13:23:45;13.60;62.50
74657;DHT22;63185;45.642;13.764;2023-02-03T13:40:41;13.60;60.00
74657;DHT22;63185;45.642;13.764;2023-02-03T13:43:09;13.50;61.00
74657;DHT22;63185;45.642;13.764;2023-02-03T13:45:40;13.50;61.00
74657;DHT22;63185;45.642;13.764;2023-02-03T13:48:12;13.40;61.50
74657;DHT22;63185;45.642;13.764;2023-02-03T13:50:39;13.50;61.40
74657;DHT22;63185;45.642;13.764;2023-02-03T13:53:14;13.60;61.30
74657;DHT22;63185;45.642;13.764;2023-02-03T13:56:00;13.50;61.20
74657;DHT22;63185;45.642;13.764;2023-02-03T13:58:29;13.60;61.30
74657;DHT22;63185;45.642;13.764;2023-02-03T14:05:54;13.60;60.90
74657;DHT22;63185;45.642;13.764;2023-02-03T14:16:50;13.60;61.70
74657;DHT22;63185;45.642;13.764;2023-02-03T14:22:08;13.40;63.80
74657;DHT22;63185;45.642;13.764;2023-02-03T14:24:42;13.20;64.20
74657;DHT22;63185;45.642;13.764;2023-02-03T14:27:21;13.10;64.70
74657;DHT22;63185;45.642;13.764;2023-02-03T14:32:56;13.20;64.30
74657;DHT22;63185;45.642;13.764;2023-02-03T14:38:16;13.20;63.90
74657;DHT22;63185;45.642;13.764;2023-02-03T14:41:01;13.20;64.10
74657;DHT22;63185;45.642;13.764;2023-02-03T14:43:55;13.20;63.60
74657;DHT22;63185;45.642;13.764;2023-02-03T14:52:34;13.30;63.40
74657;DHT22;63185;45.642;13.764;2023-02-03T14:57:44;13.30;63.30
74657;DHT22;63185;45.642;13.764;2023-02-03T15:07:57;13.90;61.40
74657;DHT22;63185;45.642;13.764;2023-02-03T15:10:42;14.00;60.70
74657;DHT22;63185;45.642;13.764;2023-02-03T15:13:26;14.00;61.00
74657;DHT22;63185;45.642;13.764;2023-02-03T15:15:58;14.20;60.30
74657;DHT22;63185;45.642;13.764;2023-02-03T15:18:35;14.40;59.80
74657;DHT22;63185;45.642;13.764;2023-02-03T15:21:03;14.50;59.70
74657;DHT22;63185;45.642;13.764;2023-02-03T15:23:37;14.40;59.60
74657;DHT22;63185;45.642;13.764;2023-02-03T15:26:12;14.30;59.40
74657;DHT22;63185;45.642;13.764;2023-02-03T15:28:38;14.10;59.60
74657;DHT22;63185;45.642;13.764;2023-02-03T15:31:24;13.90;60.30
74657;DHT22;63185;45.642;13.764;2023-02-03T15:33:51;13.70;61.20
74657;DHT22;63185;45.642;13.764;2023-02-03T15:36:23;13.60;61.90
74657;DHT22;63185;45.642;13.764;2023-02-03T15:39:01;13.50;62.40
74657;DHT22;63185;45.642;13.764;2023-02-03T15:41:31;13.10;63.80
74657;DHT22;63185;45.642;13.764;2023-02-03T15:44:52;13.10;64.50
74657;DHT22;63185;45.642;13.764;2023-02-03T15:47:20;12.80;65.20
74657;DHT22;63185;45.642;13.764;2023-02-03T15:49:57;12.90;65.20
74657;DHT22;63185;45.642;13.764;2023-02-03T15:52:26;12.90;65.30
74657;DHT22;63185;45.642;13.764;2023-02-03T15:55:02;12.70;65.70
74657;DHT22;63185;45.642;13.764;2023-02-03T15:57:32;12.50;66.20
74657;DHT22;63185;45.642;13.764;2023-02-03T16:00:21;12.50;66.00
74657;DHT22;63185;45.642;13.764;2023-02-03T16:02:51;12.30;66.00
74657;DHT22;63185;45.642;13.764;2023-02-03T16:07:51;12.20;66.40
74657;DHT22;63185;45.642;13.764;2023-02-03T16:10:32;12.20;66.80
74657;DHT22;63185;45.642;13.764;2023-02-03T16:15:42;12.10;67.30
74657;DHT22;63185;45.642;13.764;2023-02-03T16:18:17;12.10;67.50
74657;DHT22;63185;45.642;13.764;2023-02-03T16:20:50;12.10;67.30
74657;DHT22;63185;45.642;13.764;2023-02-03T16:23:23;12.10;67.00
74657;DHT22;63185;45.642;13.764;2023-02-03T16:26:02;12.10;66.90
74657;DHT22;63185;45.642;13.764;2023-02-03T16:28:28;12.10;67.00
74657;DHT22;63185;45.642;13.764;2023-02-03T16:31:17;12.00;66.70
74657;DHT22;63185;45.642;13.764;2023-02-03T16:34:17;12.00;66.90
74657;DHT22;63185;45.642;13.764;2023-02-03T16:37:11;12.00;67.00
74657;DHT22;63185;45.642;13.764;2023-02-03T16:39:56;11.90;67.30
74657;DHT22;63185;45.642;13.764;2023-02-03T16:42:40;11.90;67.30
74657;DHT22;63185;45.642;13.764;2023-02-03T16:45:24;11.90;67.70
74657;DHT22;63185;45.642;13.764;2023-02-03T16:48:12;11.90;67.60
74657;DHT22;63185;45.642;13.764;2023-02-03T16:51:02;12.00;67.40
74657;DHT22;63185;45.642;13.764;2023-02-03T16:53:30;12.00;67.20
74657;DHT22;63185;45.642;13.764;2023-02-03T16:55:59;12.10;67.20
74657;DHT22;63185;45.642;13.764;2023-02-03T16:58:25;12.00;67.30
74657;DHT22;63185;45.642;13.764;2023-02-03T17:00:51;12.00;67.60
74657;DHT22;63185;45.642;13.764;2023-02-03T17:03:21;11.90;67.90
74657;DHT22;63185;45.642;13.764;2023-02-03T17:05:48;11.90;67.90
74657;DHT22;63185;45.642;13.764;2023-02-03T17:08:17;11.90;68.10
74657;DHT22;63185;45.642;13.764;2023-02-03T17:10:44;12.00;68.10
74657;DHT22;63185;45.642;13.764;2023-02-03T17:13:11;12.00;68.10
74657;DHT22;63185;45.642;13.764;2023-02-03T17:15:48;12.00;68.10
74657;DHT22;63185;45.642;13.764;2023-02-03T17:18:15;12.10;67.90
74657;DHT22;63185;45.642;13.764;2023-02-03T17:20:42;12.10;67.80
74657;DHT22;63185;45.642;13.764;2023-02-03T17:23:08;12.10;67.70
74657;DHT22;63185;45.642;13.764;2023-02-03T17:25:35;12.10;67.50
74657;DHT22;63185;45.642;13.764;2023-02-03T17:28:02;12.20;67.50
74657;DHT22;63185;45.642;13.764;2023-02-03T17:30:28;12.20;67.60
74657;DHT22;63185;45.642;13.764;2023-02-03T17:32:58;12.20;67.70
74657;DHT22;63185;45.642;13.764;2023-02-03T17:35:24;12.20;67.80
74657;DHT22;63185;45.642;13.764;2023-02-03T17:37:50;12.10;68.30
74657;DHT22;63185;45.642;13.764;2023-02-03T17:40:16;12.00;68.70
74657;DHT22;63185;45.642;13.764;2023-02-03T17:42:42;12.00;68.60
74657;DHT22;63185;45.642;13.764;2023-02-03T17:45:08;12.00;68.40
74657;DHT22;63185;45.642;13.764;2023-02-03T17:47:34;12.00;68.10
74657;DHT22;63185;45.642;13.764;2023-02-03T17:49:59;12.00;67.90
74657;DHT22;63185;45.642;13.764;2023-02-03T17:52:26;12.00;68.10
74657;DHT22;63185;45.642;13.764;2023-02-03T17:54:51;12.00;68.00
74657;DHT22;63185;45.642;13.764;2023-02-03T17:57:17;12.10;67.80
74657;DHT22;63185;45.642;13.764;2023-02-03T17:59:43;12.00;68.00
74657;DHT22;63185;45.642;13.764;2023-02-03T18:02:09;12.00;68.10
74657;DHT22;63185;45.642;13.764;2023-02-03T18:04:34;12.00;68.10
74657;DHT22;63185;45.642;13.764;2023-02-03T18:07:00;11.90;68.40
74657;DHT22;63185;45.642;13.764;2023-02-03T18:09:26;11.90;68.50
74657;DHT22;63185;45.642;13.764;2023-02-03T18:11:51;11.90;68.60
74657;DHT22;63185;45.642;13.764;2023-02-03T18:14:17;11.90;68.70
74657;DHT22;63185;45.642;13.764;2023-02-03T18:16:43;11.90;68.60
74657;DHT22;63185;45.642;13.764;2023-02-03T18:19:12;11.90;68.50
74657;DHT22;63185;45.642;13.764;2023-02-03T18:21:40;11.80;68.50
74657;DHT22;63185;45.642;13.764;2023-02-03T18:24:06;11.80;68.70